首页
METAR-TAF:

METAR-TAF

机场 :

康塞普西翁, 智利

纬度: 36-46S, 经度: 073-03W, 海拔: 12米

当前天气观测

该预报发布于22分钟前的03:00 UTC
风速3节,风向北转西北,在西转西北北转东北之间变化
温度 16°C
湿度 88%
气压 1014 hPa
能见度10公里或以上
散云层高于700英尺
阴天层高于1000英尺

METAR: SCIE 230300Z 34003KT 290V020 9999 SCT007 OVC010 16/14 Q1014

时间: 00:22 (03:22 UTC)

预报

该预报发布于5小时和13分钟前的22:09 UTC
预报有效从23日的 00点(UTC)到 23日的 24点(UTC)
风速12节,风向
能见度10公里或以上
多云层高于1500英尺
成为
从 23日的 02点(UTC)到 23日的 04点(UTC)
风速4节,风向
散云层高于1000英尺
多云层高于2000英尺
短暂存在
从 23日的 08点(UTC)到 23日的 12点(UTC)
能見度: 4000
多云层高于500英尺
轻雾
成为
从 23日的 15点(UTC)到 23日的 17点(UTC)
风速10节,风向
少量云层高于1200英尺
多云层高于2000英尺
成为
从 23日的 18点(UTC)到 23日的 20点(UTC)
风速10节,风向西转西南
少量云层高于2000英尺

TAF: SCIE 222209Z 2300/2324 36012KT 9999 BKN015 TX18/2319Z TN12/2311Z BECMG 2302/2304 01004KT SCT010 BKN020 TEMPO 2308/2312 4000 BR BKN005 BECMG 2315/2317 35010KT FEW012 BKN020 BECMG 2318/2320 25010KT FEW020

超过4000个机场的气象观测和天气预报(METAR&TAF报告)。

可查询的气象台以黄色和红色小点在地图上表示。

将鼠标移到小点上方,可查看气象台名称。

然后点击查看天气观测和预报。

如需切换地图:点击带黑十字的绿色按钮放大地图;点击带横线的绿色按钮缩小地图;或者点击绿色箭头查看邻近地区的地图。


METAR-TAF: